sensor_id;sensor_type;location;lat;lon;timestamp;temperature;humidity
16491;DHT22;8356;51.214;3.270;2023-04-15T00:00:41;358.40;2329.60
16491;DHT22;8356;51.214;3.270;2023-04-15T00:03:07;358.40;2329.60
16491;DHT22;8356;51.214;3.270;2023-04-15T00:05:33;358.40;2329.60
16491;DHT22;8356;51.214;3.270;2023-04-15T00:07:59;358.40;2329.60
16491;DHT22;8356;51.214;3.270;2023-04-15T00:10:26;358.40;2329.60
16491;DHT22;8356;51.214;3.270;2023-04-15T00:12:52;358.60;2329.60
16491;DHT22;8356;51.214;3.270;2023-04-15T00:15:18;358.60;2329.60
16491;DHT22;8356;51.214;3.270;2023-04-15T00:17:43;358.60;2329.60
16491;DHT22;8356;51.214;3.270;2023-04-15T00:20:09;358.40;2329.60
16491;DHT22;8356;51.214;3.270;2023-04-15T00:22:35;333.60;2329.60
16491;DHT22;8356;51.214;3.270;2023-04-15T00:25:01;333.60;2329.60
16491;DHT22;8356;51.214;3.270;2023-04-15T00:27:27;333.50;2329.60
16491;DHT22;8356;51.214;3.270;2023-04-15T00:29:54;333.50;2329.60
16491;DHT22;8356;51.214;3.270;2023-04-15T00:32:19;333.40;2329.60
16491;DHT22;8356;51.214;3.270;2023-04-15T00:34:45;333.50;2329.60
16491;DHT22;8356;51.214;3.270;2023-04-15T00:37:11;333.70;2329.60
16491;DHT22;8356;51.214;3.270;2023-04-15T00:39:37;358.50;2329.60
16491;DHT22;8356;51.214;3.270;2023-04-15T00:42:03;358.50;2329.60
16491;DHT22;8356;51.214;3.270;2023-04-15T00:44:29;358.50;2329.60
16491;DHT22;8356;51.214;3.270;2023-04-15T00:46:56;358.50;2329.60
16491;DHT22;8356;51.214;3.270;2023-04-15T00:54:14;358.80;2329.60
16491;DHT22;8356;51.214;3.270;2023-04-15T00:56:41;358.80;2329.60
16491;DHT22;8356;51.214;3.270;2023-04-15T00:59:07;358.70;2329.60
16491;DHT22;8356;51.214;3.270;2023-04-15T01:36:01;307.90;2304.00
16491;DHT22;8356;51.214;3.270;2023-04-15T01:38:28;307.80;2304.00
16491;DHT22;8356;51.214;3.270;2023-04-15T01:40:54;307.80;2304.00
16491;DHT22;8356;51.214;3.270;2023-04-15T01:43:20;307.80;2304.00
16491;DHT22;8356;51.214;3.270;2023-04-15T01:45:46;307.80;2304.00
16491;DHT22;8356;51.214;3.270;2023-04-15T01:48:12;307.90;2304.00
16491;DHT22;8356;51.214;3.270;2023-04-15T01:50:37;307.90;2304.00
16491;DHT22;8356;51.214;3.270;2023-04-15T01:53:03;307.80;2304.00
16491;DHT22;8356;51.214;3.270;2023-04-15T01:55:29;307.70;2304.00
16491;DHT22;8356;51.214;3.270;2023-04-15T01:57:55;307.60;2304.00
16491;DHT22;8356;51.214;3.270;2023-04-15T02:00:21;307.60;2304.00
16491;DHT22;8356;51.214;3.270;2023-04-15T02:02:47;307.60;2304.00
16491;DHT22;8356;51.214;3.270;2023-04-15T02:05:13;332.80;2329.60
16491;DHT22;8356;51.214;3.270;2023-04-15T02:07:41;307.40;2304.00
16491;DHT22;8356;51.214;3.270;2023-04-15T02:10:08;307.40;2304.00
16491;DHT22;8356;51.214;3.270;2023-04-15T02:12:34;307.40;2304.00
16491;DHT22;8356;51.214;3.270;2023-04-15T02:15:00;307.40;2304.00
16491;DHT22;8356;51.214;3.270;2023-04-15T02:17:26;307.50;2304.00
16491;DHT22;8356;51.214;3.270;2023-04-15T02:19:52;307.70;2304.00
16491;DHT22;8356;51.214;3.270;2023-04-15T02:22:18;307.80;2304.00
16491;DHT22;8356;51.214;3.270;2023-04-15T02:24:43;307.80;2304.00
16491;DHT22;8356;51.214;3.270;2023-04-15T02:27:14;307.90;2304.00
16491;DHT22;8356;51.214;3.270;2023-04-15T02:29:39;307.90;2304.00
16491;DHT22;8356;51.214;3.270;2023-04-15T02:32:05;307.80;2304.00
16491;DHT22;8356;51.214;3.270;2023-04-15T02:34:31;307.70;2304.00
16491;DHT22;8356;51.214;3.270;2023-04-15T02:36:58;307.70;2304.00
16491;DHT22;8356;51.214;3.270;2023-04-15T02:39:23;307.90;2304.00
16491;DHT22;8356;51.214;3.270;2023-04-15T02:41:49;307.90;2304.00
16491;DHT22;8356;51.214;3.270;2023-04-15T02:44:18;307.90;2304.00
16491;DHT22;8356;51.214;3.270;2023-04-15T02:46:48;307.90;2304.00
16491;DHT22;8356;51.214;3.270;2023-04-15T02:49:17;308.00;2304.00
16491;DHT22;8356;51.214;3.270;2023-04-15T02:51:43;307.90;2304.00
16491;DHT22;8356;51.214;3.270;2023-04-15T02:54:09;332.90;2329.60
16491;DHT22;8356;51.214;3.270;2023-04-15T02:56:35;332.90;2329.60
16491;DHT22;8356;51.214;3.270;2023-04-15T02:59:00;332.90;2329.60
16491;DHT22;8356;51.214;3.270;2023-04-15T03:01:26;332.80;2329.60
16491;DHT22;8356;51.214;3.270;2023-04-15T03:03:52;332.80;2329.60
16491;DHT22;8356;51.214;3.270;2023-04-15T03:06:17;332.80;2329.60
16491;DHT22;8356;51.214;3.270;2023-04-15T03:08:43;332.80;2329.60
16491;DHT22;8356;51.214;3.270;2023-04-15T03:11:08;308.10;2304.00
16491;DHT22;8356;51.214;3.270;2023-04-15T03:13:34;332.80;2329.60
16491;DHT22;8356;51.214;3.270;2023-04-15T03:16:00;332.80;2329.60
16491;DHT22;8356;51.214;3.270;2023-04-15T03:18:25;332.90;2329.60
16491;DHT22;8356;51.214;3.270;2023-04-15T03:20:51;332.90;2329.60
16491;DHT22;8356;51.214;3.270;2023-04-15T03:23:17;332.90;2329.60
16491;DHT22;8356;51.214;3.270;2023-04-15T03:25:43;332.90;2329.60
16491;DHT22;8356;51.214;3.270;2023-04-15T03:28:09;308.10;2304.00
16491;DHT22;8356;51.214;3.270;2023-04-15T03:30:35;308.10;2304.00
16491;DHT22;8356;51.214;3.270;2023-04-15T03:33:00;332.80;2329.60
16491;DHT22;8356;51.214;3.270;2023-04-15T03:35:26;332.80;2329.60
16491;DHT22;8356;51.214;3.270;2023-04-15T03:37:52;308.10;2304.00
16491;DHT22;8356;51.214;3.270;2023-04-15T03:40:17;308.00;2304.00
16491;DHT22;8356;51.214;3.270;2023-04-15T03:42:43;307.90;2304.00
16491;DHT22;8356;51.214;3.270;2023-04-15T03:45:09;307.80;2304.00
16491;DHT22;8356;51.214;3.270;2023-04-15T03:47:35;307.60;2304.00
16491;DHT22;8356;51.214;3.270;2023-04-15T03:50:00;307.60;2304.00
16491;DHT22;8356;51.214;3.270;2023-04-15T03:52:26;307.70;2304.00
16491;DHT22;8356;51.214;3.270;2023-04-15T03:54:51;307.60;2304.00
16491;DHT22;8356;51.214;3.270;2023-04-15T03:57:17;307.70;2304.00
16491;DHT22;8356;51.214;3.270;2023-04-15T03:59:43;307.70;2304.00
16491;DHT22;8356;51.214;3.270;2023-04-15T04:02:08;307.60;2304.00
16491;DHT22;8356;51.214;3.270;2023-04-15T04:04:34;307.70;2304.00
16491;DHT22;8356;51.214;3.270;2023-04-15T04:07:00;307.70;2304.00
16491;DHT22;8356;51.214;3.270;2023-04-15T04:09:25;307.70;2304.00
16491;DHT22;8356;51.214;3.270;2023-04-15T04:11:52;307.80;2304.00
16491;DHT22;8356;51.214;3.270;2023-04-15T04:14:17;307.90;2304.00
16491;DHT22;8356;51.214;3.270;2023-04-15T04:16:43;308.00;2304.00
16491;DHT22;8356;51.214;3.270;2023-04-15T04:19:09;308.00;2304.00
16491;DHT22;8356;51.214;3.270;2023-04-15T04:21:35;308.00;2304.00
16491;DHT22;8356;51.214;3.270;2023-04-15T04:24:01;308.00;2304.00
16491;DHT22;8356;51.214;3.270;2023-04-15T04:26:26;308.00;2304.00
16491;DHT22;8356;51.214;3.270;2023-04-15T04:28:52;307.90;2304.00
16491;DHT22;8356;51.214;3.270;2023-04-15T04:31:18;307.80;2304.00
16491;DHT22;8356;51.214;3.270;2023-04-15T04:33:43;307.80;2304.00
16491;DHT22;8356;51.214;3.270;2023-04-15T04:36:09;307.80;2304.00
16491;DHT22;8356;51.214;3.270;2023-04-15T04:38:34;307.70;2304.00
16491;DHT22;8356;51.214;3.270;2023-04-15T04:41:00;307.70;2304.00
16491;DHT22;8356;51.214;3.270;2023-04-15T04:43:26;307.70;2304.00
16491;DHT22;8356;51.214;3.270;2023-04-15T04:45:51;307.80;2304.00
16491;DHT22;8356;51.214;3.270;2023-04-15T04:48:17;307.70;2304.00
16491;DHT22;8356;51.214;3.270;2023-04-15T04:50:43;307.70;2304.00
16491;DHT22;8356;51.214;3.270;2023-04-15T04:53:09;307.60;2304.00
16491;DHT22;8356;51.214;3.270;2023-04-15T04:55:35;307.60;2304.00
16491;DHT22;8356;51.214;3.270;2023-04-15T04:58:01;307.50;2304.00
16491;DHT22;8356;51.214;3.270;2023-04-15T05:00:27;307.60;2304.00
16491;DHT22;8356;51.214;3.270;2023-04-15T05:02:54;307.60;2304.00
16491;DHT22;8356;51.214;3.270;2023-04-15T05:05:19;307.60;2304.00
16491;DHT22;8356;51.214;3.270;2023-04-15T05:07:45;307.60;2304.00
16491;DHT22;8356;51.214;3.270;2023-04-15T05:10:12;307.60;2304.00
16491;DHT22;8356;51.214;3.270;2023-04-15T05:12:39;307.50;2304.00
16491;DHT22;8356;51.214;3.270;2023-04-15T05:15:05;307.50;2304.00
16491;DHT22;8356;51.214;3.270;2023-04-15T05:17:31;307.60;2304.00
16491;DHT22;8356;51.214;3.270;2023-04-15T05:19:57;307.70;2304.00
16491;DHT22;8356;51.214;3.270;2023-04-15T05:22:23;307.70;2304.00
16491;DHT22;8356;51.214;3.270;2023-04-15T05:24:48;307.70;2304.00
16491;DHT22;8356;51.214;3.270;2023-04-15T05:27:14;307.70;2304.00
16491;DHT22;8356;51.214;3.270;2023-04-15T05:29:40;307.60;2304.00
16491;DHT22;8356;51.214;3.270;2023-04-15T05:32:06;307.60;2304.00
16491;DHT22;8356;51.214;3.270;2023-04-15T05:34:31;307.60;2304.00
16491;DHT22;8356;51.214;3.270;2023-04-15T05:36:57;307.60;2304.00
16491;DHT22;8356;51.214;3.270;2023-04-15T05:39:22;307.70;2304.00
16491;DHT22;8356;51.214;3.270;2023-04-15T05:41:48;307.70;2304.00
16491;DHT22;8356;51.214;3.270;2023-04-15T05:44:14;307.80;2304.00
16491;DHT22;8356;51.214;3.270;2023-04-15T05:46:39;307.90;2304.00
16491;DHT22;8356;51.214;3.270;2023-04-15T05:49:06;308.00;2304.00
16491;DHT22;8356;51.214;3.270;2023-04-15T05:51:31;307.90;2304.00
16491;DHT22;8356;51.214;3.270;2023-04-15T05:53:57;307.80;2304.00
16491;DHT22;8356;51.214;3.270;2023-04-15T05:56:23;307.90;2304.00
16491;DHT22;8356;51.214;3.270;2023-04-15T05:58:49;308.00;2304.00
16491;DHT22;8356;51.214;3.270;2023-04-15T06:01:14;308.10;2304.00
16491;DHT22;8356;51.214;3.270;2023-04-15T06:03:41;308.10;2304.00
16491;DHT22;8356;51.214;3.270;2023-04-15T06:06:07;307.90;2304.00
16491;DHT22;8356;51.214;3.270;2023-04-15T06:08:34;307.90;2304.00
16491;DHT22;8356;51.214;3.270;2023-04-15T06:11:00;307.90;2304.00
16491;DHT22;8356;51.214;3.270;2023-04-15T06:13:25;308.00;2304.00
16491;DHT22;8356;51.214;3.270;2023-04-15T06:15:51;308.10;2304.00
16491;DHT22;8356;51.214;3.270;2023-04-15T06:18:18;332.80;2329.60
16491;DHT22;8356;51.214;3.270;2023-04-15T06:20:44;332.80;2329.60
16491;DHT22;8356;51.214;3.270;2023-04-15T06:23:10;308.10;2304.00
16491;DHT22;8356;51.214;3.270;2023-04-15T06:25:36;332.80;2329.60
16491;DHT22;8356;51.214;3.270;2023-04-15T06:28:02;332.90;2329.60
16491;DHT22;8356;51.214;3.270;2023-04-15T06:30:28;333.00;2329.60
16491;DHT22;8356;51.214;3.270;2023-04-15T06:32:54;333.00;2329.60
16491;DHT22;8356;51.214;3.270;2023-04-15T06:35:20;333.00;2329.60
16491;DHT22;8356;51.214;3.270;2023-04-15T06:37:46;333.00;2329.60
16491;DHT22;8356;51.214;3.270;2023-04-15T06:40:12;333.00;2329.60
16491;DHT22;8356;51.214;3.270;2023-04-15T06:42:38;333.00;2329.60
16491;DHT22;8356;51.214;3.270;2023-04-15T06:45:04;333.10;2329.60
16491;DHT22;8356;51.214;3.270;2023-04-15T06:47:29;333.10;2329.60
16491;DHT22;8356;51.214;3.270;2023-04-15T06:49:55;333.10;2329.60
16491;DHT22;8356;51.214;3.270;2023-04-15T06:52:21;332.90;2329.60
16491;DHT22;8356;51.214;3.270;2023-04-15T06:54:46;332.90;2329.60
16491;DHT22;8356;51.214;3.270;2023-04-15T06:57:12;332.90;2329.60
16491;DHT22;8356;51.214;3.270;2023-04-15T06:59:38;333.00;2329.60
16491;DHT22;8356;51.214;3.270;2023-04-15T07:02:03;333.20;2329.60
16491;DHT22;8356;51.214;3.270;2023-04-15T07:04:29;333.50;2329.60
16491;DHT22;8356;51.214;3.270;2023-04-15T07:06:55;333.40;2329.60
16491;DHT22;8356;51.214;3.270;2023-04-15T07:09:22;333.50;2329.60
16491;DHT22;8356;51.214;3.270;2023-04-15T07:11:47;333.50;2329.60
16491;DHT22;8356;51.214;3.270;2023-04-15T07:14:14;333.40;2329.60
16491;DHT22;8356;51.214;3.270;2023-04-15T07:16:39;333.20;2329.60
16491;DHT22;8356;51.214;3.270;2023-04-15T07:19:05;333.20;2329.60
16491;DHT22;8356;51.214;3.270;2023-04-15T07:21:30;333.20;2329.60
16491;DHT22;8356;51.214;3.270;2023-04-15T07:23:56;333.10;2329.60
16491;DHT22;8356;51.214;3.270;2023-04-15T07:26:23;333.00;2329.60
16491;DHT22;8356;51.214;3.270;2023-04-15T07:28:49;333.00;2329.60
16491;DHT22;8356;51.214;3.270;2023-04-15T07:31:14;333.00;2329.60
16491;DHT22;8356;51.214;3.270;2023-04-15T07:33:41;333.00;2329.60
16491;DHT22;8356;51.214;3.270;2023-04-15T07:36:07;333.00;2329.60
16491;DHT22;8356;51.214;3.270;2023-04-15T07:38:33;333.00;2329.60
16491;DHT22;8356;51.214;3.270;2023-04-15T07:40:58;332.90;2329.60
16491;DHT22;8356;51.214;3.270;2023-04-15T07:43:24;333.00;2329.60
16491;DHT22;8356;51.214;3.270;2023-04-15T07:45:50;333.00;2329.60
16491;DHT22;8356;51.214;3.270;2023-04-15T07:48:15;333.10;2329.60
16491;DHT22;8356;51.214;3.270;2023-04-15T07:50:41;333.10;2329.60
16491;DHT22;8356;51.214;3.270;2023-04-15T07:53:07;333.20;2329.60
16491;DHT22;8356;51.214;3.270;2023-04-15T07:55:32;333.30;2329.60
16491;DHT22;8356;51.214;3.270;2023-04-15T07:57:58;333.30;2329.60
16491;DHT22;8356;51.214;3.270;2023-04-15T08:00:24;333.30;2329.60
16491;DHT22;8356;51.214;3.270;2023-04-15T08:02:51;333.30;2329.60
16491;DHT22;8356;51.214;3.270;2023-04-15T08:05:18;333.40;2329.60
16491;DHT22;8356;51.214;3.270;2023-04-15T08:07:44;333.50;2329.60
16491;DHT22;8356;51.214;3.270;2023-04-15T08:10:10;333.60;2329.60
16491;DHT22;8356;51.214;3.270;2023-04-15T08:12:36;333.70;2329.60
16491;DHT22;8356;51.214;3.270;2023-04-15T08:15:02;358.40;2329.60
16491;DHT22;8356;51.214;3.270;2023-04-15T08:17:28;358.40;2329.60
16491;DHT22;8356;51.214;3.270;2023-04-15T08:19:53;358.40;2329.60
16491;DHT22;8356;51.214;3.270;2023-04-15T08:22:19;358.40;2329.60
16491;DHT22;8356;51.214;3.270;2023-04-15T08:24:45;333.60;2329.60
16491;DHT22;8356;51.214;3.270;2023-04-15T08:27:11;333.60;2329.60
16491;DHT22;8356;51.214;3.270;2023-04-15T08:29:36;333.70;2329.60
16491;DHT22;8356;51.214;3.270;2023-04-15T08:32:02;333.60;2329.60
16491;DHT22;8356;51.214;3.270;2023-04-15T08:34:28;333.60;2329.60
16491;DHT22;8356;51.214;3.270;2023-04-15T08:36:55;333.70;2329.60
16491;DHT22;8356;51.214;3.270;2023-04-15T08:39:21;358.40;2329.60
16491;DHT22;8356;51.214;3.270;2023-04-15T08:41:51;358.40;2329.60
16491;DHT22;8356;51.214;3.270;2023-04-15T08:44:22;358.40;2329.60
16491;DHT22;8356;51.214;3.270;2023-04-15T08:46:48;358.50;2329.60
16491;DHT22;8356;51.214;3.270;2023-04-15T08:49:14;358.60;2329.60
16491;DHT22;8356;51.214;3.270;2023-04-15T08:51:42;358.70;2329.60
16491;DHT22;8356;51.214;3.270;2023-04-15T08:54:08;358.70;2329.60
16491;DHT22;8356;51.214;3.270;2023-04-15T08:56:35;358.80;2329.60
16491;DHT22;8356;51.214;3.270;2023-04-15T08:59:01;358.90;2329.60
16491;DHT22;8356;51.214;3.270;2023-04-15T09:01:28;359.00;2329.60
16491;DHT22;8356;51.214;3.270;2023-04-15T09:03:55;359.10;2329.60
16491;DHT22;8356;51.214;3.270;2023-04-15T09:06:22;359.10;2329.60
16491;DHT22;8356;51.214;3.270;2023-04-15T09:08:49;384.00;2329.60
16491;DHT22;8356;51.214;3.270;2023-04-15T09:11:16;384.10;2329.60
16491;DHT22;8356;51.214;3.270;2023-04-15T09:13:44;384.30;2329.60
16491;DHT22;8356;51.214;3.270;2023-04-15T09:16:11;384.30;2329.60
16491;DHT22;8356;51.214;3.270;2023-04-15T09:18:38;384.30;2329.60
16491;DHT22;8356;51.214;3.270;2023-04-15T09:21:08;384.10;2329.60
16491;DHT22;8356;51.214;3.270;2023-04-15T09:23:37;359.30;2329.60
16491;DHT22;8356;51.214;3.270;2023-04-15T09:26:03;359.20;2329.60
16491;DHT22;8356;51.214;3.270;2023-04-15T09:28:30;359.30;2329.60
16491;DHT22;8356;51.214;3.270;2023-04-15T09:31:00;359.10;2329.60
16491;DHT22;8356;51.214;3.270;2023-04-15T09:33:28;384.10;2329.60
16491;DHT22;8356;51.214;3.270;2023-04-15T09:36:02;384.20;2329.60
16491;DHT22;8356;51.214;3.270;2023-04-15T09:38:29;384.20;2329.60
16491;DHT22;8356;51.214;3.270;2023-04-15T09:40:56;384.20;2329.60
16491;DHT22;8356;51.214;3.270;2023-04-15T09:43:25;384.00;2329.60
16491;DHT22;8356;51.214;3.270;2023-04-15T09:46:01;384.00;2329.60
16491;DHT22;8356;51.214;3.270;2023-04-15T09:48:27;384.20;2329.60
16491;DHT22;8356;51.214;3.270;2023-04-15T09:50:57;384.40;2329.60
16491;DHT22;8356;51.214;3.270;2023-04-15T09:53:24;384.60;2329.60
16491;DHT22;8356;51.214;3.270;2023-04-15T09:56:00;384.30;2329.60
16491;DHT22;8356;51.214;3.270;2023-04-15T09:58:31;384.60;2329.60
16491;DHT22;8356;51.214;3.270;2023-04-15T10:00:58;384.60;2329.60
16491;DHT22;8356;51.214;3.270;2023-04-15T10:03:26;384.90;2329.60
16491;DHT22;8356;51.214;3.270;2023-04-15T10:05:53;409.80;2355.20
16491;DHT22;8356;51.214;3.270;2023-04-15T10:08:21;409.70;2355.20
16491;DHT22;8356;51.214;3.270;2023-04-15T10:10:48;409.70;2355.20
16491;DHT22;8356;51.214;3.270;2023-04-15T10:13:17;409.90;2355.20
16491;DHT22;8356;51.214;3.270;2023-04-15T10:15:47;409.60;2355.20
16491;DHT22;8356;51.214;3.270;2023-04-15T10:18:19;384.60;2329.60
16491;DHT22;8356;51.214;3.270;2023-04-15T10:20:47;384.10;2329.60
16491;DHT22;8356;51.214;3.270;2023-04-15T10:23:12;384.70;2329.60
16491;DHT22;8356;51.214;3.270;2023-04-15T10:25:39;409.60;2355.20
16491;DHT22;8356;51.214;3.270;2023-04-15T10:28:06;409.90;2355.20
16491;DHT22;8356;51.214;3.270;2023-04-15T10:30:35;409.90;2355.20
16491;DHT22;8356;51.214;3.270;2023-04-15T10:33:02;409.90;2355.20
16491;DHT22;8356;51.214;3.270;2023-04-15T10:35:30;409.90;2355.20
16491;DHT22;8356;51.214;3.270;2023-04-15T10:37:56;410.00;2355.20
16491;DHT22;8356;51.214;3.270;2023-04-15T10:40:27;410.00;2355.20
16491;DHT22;8356;51.214;3.270;2023-04-15T10:42:54;410.10;2355.20
16491;DHT22;8356;51.214;3.270;2023-04-15T10:45:20;410.40;2355.20
16491;DHT22;8356;51.214;3.270;2023-04-15T10:47:51;435.20;2355.20
16491;DHT22;8356;51.214;3.270;2023-04-15T10:50:18;435.20;2355.20
16491;DHT22;8356;51.214;3.270;2023-04-15T10:52:43;435.20;2355.20
16491;DHT22;8356;51.214;3.270;2023-04-15T10:57:37;410.40;2355.20
16491;DHT22;8356;51.214;3.270;2023-04-15T11:00:11;410.30;2355.20
16491;DHT22;8356;51.214;3.270;2023-04-15T11:02:41;410.50;2355.20
16491;DHT22;8356;51.214;3.270;2023-04-15T11:05:08;435.20;2355.20
16491;DHT22;8356;51.214;3.270;2023-04-15T11:12:56;435.40;2355.20
16491;DHT22;8356;51.214;3.270;2023-04-15T11:15:33;435.30;2355.20
16491;DHT22;8356;51.214;3.270;2023-04-15T11:20:43;435.60;2355.20
16491;DHT22;8356;51.214;3.270;2023-04-15T11:23:13;435.50;2355.20
16491;DHT22;8356;51.214;3.270;2023-04-15T11:25:39;435.60;2355.20
16491;DHT22;8356;51.214;3.270;2023-04-15T11:28:05;435.40;2355.20
16491;DHT22;8356;51.214;3.270;2023-04-15T11:30:33;435.50;2355.20
16491;DHT22;8356;51.214;3.270;2023-04-15T11:33:04;435.80;2355.20
16491;DHT22;8356;51.214;3.270;2023-04-15T11:35:31;435.80;2355.20
16491;DHT22;8356;51.214;3.270;2023-04-15T11:37:57;435.80;2355.20
16491;DHT22;8356;51.214;3.270;2023-04-15T11:40:28;435.90;2355.20
16491;DHT22;8356;51.214;3.270;2023-04-15T11:45:46;436.10;2355.20
16491;DHT22;8356;51.214;3.270;2023-04-15T11:48:12;436.10;2355.20
16491;DHT22;8356;51.214;3.270;2023-04-15T11:50:39;435.90;2355.20
16491;DHT22;8356;51.214;3.270;2023-04-15T11:53:07;435.80;2355.20
16491;DHT22;8356;51.214;3.270;2023-04-15T11:55:43;435.60;2355.20
16491;DHT22;8356;51.214;3.270;2023-04-15T11:58:20;435.60;2355.20
16491;DHT22;8356;51.214;3.270;2023-04-15T12:00:49;435.70;2355.20
16491;DHT22;8356;51.214;3.270;2023-04-15T12:03:23;435.90;2355.20
16491;DHT22;8356;51.214;3.270;2023-04-15T12:06:13;435.60;2355.20
16491;DHT22;8356;51.214;3.270;2023-04-15T12:08:57;435.50;2355.20
16491;DHT22;8356;51.214;3.270;2023-04-15T12:14:23;435.60;2355.20
16491;DHT22;8356;51.214;3.270;2023-04-15T12:16:51;435.60;2355.20
16491;DHT22;8356;51.214;3.270;2023-04-15T12:19:26;435.60;2355.20
16491;DHT22;8356;51.214;3.270;2023-04-15T12:22:00;435.50;2355.20
16491;DHT22;8356;51.214;3.270;2023-04-15T12:24:26;435.60;2355.20
16491;DHT22;8356;51.214;3.270;2023-04-15T12:26:53;435.60;2355.20
16491;DHT22;8356;51.214;3.270;2023-04-15T12:29:23;435.50;2355.20
16491;DHT22;8356;51.214;3.270;2023-04-15T12:34:35;435.50;2355.20
16491;DHT22;8356;51.214;3.270;2023-04-15T12:37:03;435.70;2355.20
16491;DHT22;8356;51.214;3.270;2023-04-15T12:39:35;435.60;2355.20
16491;DHT22;8356;51.214;3.270;2023-04-15T12:42:02;435.40;2355.20
16491;DHT22;8356;51.214;3.270;2023-04-15T12:44:28;410.50;2355.20
16491;DHT22;8356;51.214;3.270;2023-04-15T12:46:54;410.20;2355.20
16491;DHT22;8356;51.214;3.270;2023-04-15T12:49:21;410.20;2355.20
16491;DHT22;8356;51.214;3.270;2023-04-15T12:51:52;410.30;2355.20
16491;DHT22;8356;51.214;3.270;2023-04-15T12:54:18;410.20;2355.20
16491;DHT22;8356;51.214;3.270;2023-04-15T12:56:45;410.20;2355.20
16491;DHT22;8356;51.214;3.270;2023-04-15T12:59:11;435.20;2355.20
16491;DHT22;8356;51.214;3.270;2023-04-15T13:01:37;435.60;2355.20
16491;DHT22;8356;51.214;3.270;2023-04-15T13:04:04;435.80;2355.20
16491;DHT22;8356;51.214;3.270;2023-04-15T13:06:29;435.60;2355.20
16491;DHT22;8356;51.214;3.270;2023-04-15T13:08:58;435.60;2355.20
16491;DHT22;8356;51.214;3.270;2023-04-15T13:11:24;435.70;2355.20
16491;DHT22;8356;51.214;3.270;2023-04-15T13:13:50;435.50;2355.20
16491;DHT22;8356;51.214;3.270;2023-04-15T13:16:17;435.20;2355.20
16491;DHT22;8356;51.214;3.270;2023-04-15T13:18:43;410.40;2355.20
16491;DHT22;8356;51.214;3.270;2023-04-15T13:21:11;410.50;2355.20
16491;DHT22;8356;51.214;3.270;2023-04-15T13:23:37;435.30;2355.20
16491;DHT22;8356;51.214;3.270;2023-04-15T13:26:02;435.40;2355.20
16491;DHT22;8356;51.214;3.270;2023-04-15T13:28:28;435.20;2355.20
16491;DHT22;8356;51.214;3.270;2023-04-15T13:30:54;410.30;2355.20
16491;DHT22;8356;51.214;3.270;2023-04-15T13:33:20;410.40;2355.20
16491;DHT22;8356;51.214;3.270;2023-04-15T13:35:46;410.40;2355.20
16491;DHT22;8356;51.214;3.270;2023-04-15T13:38:11;410.50;2355.20
16491;DHT22;8356;51.214;3.270;2023-04-15T13:40:37;410.10;2355.20
16491;DHT22;8356;51.214;3.270;2023-04-15T13:43:02;410.00;2355.20
16491;DHT22;8356;51.214;3.270;2023-04-15T13:45:29;409.90;2355.20
16491;DHT22;8356;51.214;3.270;2023-04-15T13:47:55;409.90;2355.20
16491;DHT22;8356;51.214;3.270;2023-04-15T13:50:22;409.90;2355.20
16491;DHT22;8356;51.214;3.270;2023-04-15T13:52:47;410.10;2355.20
16491;DHT22;8356;51.214;3.270;2023-04-15T13:55:13;410.10;2355.20
16491;DHT22;8356;51.214;3.270;2023-04-15T13:57:39;410.00;2355.20
16491;DHT22;8356;51.214;3.270;2023-04-15T14:00:05;410.00;2355.20
16491;DHT22;8356;51.214;3.270;2023-04-15T14:02:31;409.80;2355.20
16491;DHT22;8356;51.214;3.270;2023-04-15T14:04:57;409.60;2355.20
16491;DHT22;8356;51.214;3.270;2023-04-15T14:07:22;384.90;2329.60
16491;DHT22;8356;51.214;3.270;2023-04-15T14:09:48;409.60;2355.20
16491;DHT22;8356;51.214;3.270;2023-04-15T14:12:14;409.60;2355.20
16491;DHT22;8356;51.214;3.270;2023-04-15T14:14:40;409.90;2355.20
16491;DHT22;8356;51.214;3.270;2023-04-15T14:17:05;410.20;2355.20
16491;DHT22;8356;51.214;3.270;2023-04-15T14:19:31;410.20;2355.20
16491;DHT22;8356;51.214;3.270;2023-04-15T14:21:57;409.90;2355.20
16491;DHT22;8356;51.214;3.270;2023-04-15T14:24:23;409.70;2355.20
16491;DHT22;8356;51.214;3.270;2023-04-15T14:26:49;409.60;2355.20
16491;DHT22;8356;51.214;3.270;2023-04-15T14:29:15;409.70;2355.20
16491;DHT22;8356;51.214;3.270;2023-04-15T14:31:41;409.70;2355.20
16491;DHT22;8356;51.214;3.270;2023-04-15T14:34:09;409.70;2355.20
16491;DHT22;8356;51.214;3.270;2023-04-15T14:36:35;384.50;2329.60
16491;DHT22;8356;51.214;3.270;2023-04-15T14:39:00;384.70;2329.60
16491;DHT22;8356;51.214;3.270;2023-04-15T14:41:28;384.70;2329.60
16491;DHT22;8356;51.214;3.270;2023-04-15T14:43:54;384.60;2329.60
16491;DHT22;8356;51.214;3.270;2023-04-15T14:46:19;384.70;2329.60
16491;DHT22;8356;51.214;3.270;2023-04-15T14:48:45;409.60;2355.20
16491;DHT22;8356;51.214;3.270;2023-04-15T14:51:11;384.90;2329.60
16491;DHT22;8356;51.214;3.270;2023-04-15T14:53:36;384.70;2329.60
16491;DHT22;8356;51.214;3.270;2023-04-15T14:56:02;384.70;2329.60
16491;DHT22;8356;51.214;3.270;2023-04-15T14:58:28;384.70;2329.60
16491;DHT22;8356;51.214;3.270;2023-04-15T15:00:53;384.60;2329.60
16491;DHT22;8356;51.214;3.270;2023-04-15T15:03:19;384.40;2329.60
16491;DHT22;8356;51.214;3.270;2023-04-15T15:05:45;384.30;2329.60
16491;DHT22;8356;51.214;3.270;2023-04-15T15:08:12;384.60;2329.60
16491;DHT22;8356;51.214;3.270;2023-04-15T15:10:39;384.50;2329.60
16491;DHT22;8356;51.214;3.270;2023-04-15T15:13:08;384.30;2329.60
16491;DHT22;8356;51.214;3.270;2023-04-15T15:15:35;384.30;2329.60
16491;DHT22;8356;51.214;3.270;2023-04-15T15:18:01;384.30;2329.60
16491;DHT22;8356;51.214;3.270;2023-04-15T15:20:27;384.20;2329.60
16491;DHT22;8356;51.214;3.270;2023-04-15T15:22:53;384.10;2329.60
16491;DHT22;8356;51.214;3.270;2023-04-15T15:25:19;384.30;2329.60
16491;DHT22;8356;51.214;3.270;2023-04-15T15:27:45;384.20;2329.60
16491;DHT22;8356;51.214;3.270;2023-04-15T15:30:11;384.20;2329.60
16491;DHT22;8356;51.214;3.270;2023-04-15T15:32:40;384.10;2329.60
16491;DHT22;8356;51.214;3.270;2023-04-15T15:35:07;384.00;2329.60
16491;DHT22;8356;51.214;3.270;2023-04-15T15:37:33;359.30;2329.60
16491;DHT22;8356;51.214;3.270;2023-04-15T15:39:59;359.30;2329.60
16491;DHT22;8356;51.214;3.270;2023-04-15T15:42:25;359.30;2329.60
16491;DHT22;8356;51.214;3.270;2023-04-15T15:44:51;359.30;2329.60
16491;DHT22;8356;51.214;3.270;2023-04-15T15:47:18;384.00;2329.60
16491;DHT22;8356;51.214;3.270;2023-04-15T15:49:44;384.00;2329.60
16491;DHT22;8356;51.214;3.270;2023-04-15T15:52:10;359.30;2329.60
16491;DHT22;8356;51.214;3.270;2023-04-15T15:54:36;359.20;2329.60
16491;DHT22;8356;51.214;3.270;2023-04-15T15:57:02;359.00;2329.60